Mammoth, AZ (85618)

03:39 AM MST on Juli 03, 2015 (GMT -0700)
KAZMAMMO2 | | Change Station
CLOSE
Current Station
Personligvejrstation
Location: Mammoth, AZ
Højde: 2600 ft
Vejrstationer i nærheden

Elev 2600 ft 32.70 °N, 110.65 °W | Updated 11 seconds ago

Tordenvejr
Tordenvejr
77.0 ° F
Føles som 79 ° F
N
0.0
Vind Skiftende Vind SSØ
Gusts 0.0 mph

I dag
Høj -- | Lav -- ° F
--% Risiko for nedbør
I går
Høj -- | Lav -- ° F
Precip. -- tommer
5:19 AM 7:34 PM
Fuldmåne, 98% visible
Tryk 29.81 tommer
Sigtbarhed 10.0 mil
Skyer Klart
Varmeindeks 79 ° F
Dugpunkt 64 ° F
Luftfugtighed 64%
Regnmængde 0.00 tommer
Snedybde Ikke tilgængelig.
UV 0 fra 12
Pollen 3.90 fra 12
Luftkvalitet Ikke tilgængelig.
Flu Activity Ikke tilgængelig.
METAR KDMA 030958Z AUTO 13005KT 10SM CLR 29/14 A2996 RMK AO2 LTG DSNT NE SLP094 T02870141 $

More Conditions Fewer Conditions

Tryk 29.81 tommer
Sigtbarhed 10.0 mil
Skyer Klart
Varmeindeks 79 ° F
Dugpunkt 64 ° F
Luftfugtighed 64%
Regnmængde 0.00 tommer
Snedybde Ikke tilgængelig.
UV 0 fra 12
Pollen 3.90 fra 12
Luftkvalitet Ikke tilgængelig.
Flu Activity Ikke tilgængelig.
METAR KDMA 030958Z AUTO 13005KT 10SM CLR 29/14 A2996 RMK AO2 LTG DSNT NE SLP094 T02870141 $

More Conditions Fewer Conditions

Nowcast | as of 1:06 am MST on July 3, 2015

Scattered showers and isolated thunderstorms continued to move westward across the area early this morning. Wind gusts to 40 mph and brief moderate rain will accompany the stronger storms. Rainfall amounts up to a quarter of an inch is possible with these storms.

×

10-Day Weather Forecast

×

Almanac

Astronomi

Jul. 03, 2015 Opgang Nedgang
Faktisktidspunkt
Civilttusmørke
Nautisktusmørke
Astronomisktusmørke
Måne
Synligtlys’ længde
Dagens længde
Tomorrow will be .
, % of the Moon is Illuminated

Ekstremer i dag

State Highs State Lows

Community

WunderPhotos

Upload Photos

1,834,647 Billeder uploaded!

WunderBlogs® & News

Nearby

Luftkvalitet

  Luftkvalitet AQ-indeks Forureningskilder
Not available.

Snedybde

Station Depth Højde

Jordskælvsaktivitet

By Distance Mag. Time & Date
Minimum magnitude displayed is 2.5.

Kystnære vandtemperaturer

Sted Temperatur

Stations

Vejrstationer i nærheden

Stationenssted Temp. Vindeffekt Dugpunkt Luftfugtighed Vind Precip. Elev Opdateret Type